CheckWX is a tool to help pilots better visualize weather data.  It is not intended as a substitute for an official pre-flight weather briefing.

22:42:29 UTC

KITH TAF
Ithaca Tompkins Regional Airport
Ithaca, New York, USA
KITH 161939Z 1620/1718 17014G20KT 6SM -SHRA OVC025 TEMPO 1620/1623 2SM +RA BR OVC012 FM170100 29008KT 5SM -RA BR OVC020 FM171000 30013G21KT 6SM -SHRA OVC009 FM171400 30018G25KT 6SM -SHRA OVC011

Oct-16@
20:00 UTC

Oct-16 @ 20:00 UTC

Oct-17@
01:00 UTC

Oct-17 @ 01:00 UTC

KITH 161939Z 1620/1718 17014G20KT 6SM -SHRA OVC025
Wind
  • 170° at 14 KTS
  • {Gusting to 20 KTS
Conditions
Light Rain
Cloud Levels
  • Overcast at 2,500' AGL

Oct-16@
20:00 UTC

Oct-16 @ 20:00 UTC

Oct-16@
23:00 UTC

Oct-16 @ 23:00 UTC

TEMPO 1620/1623 2SM +RA BR OVC012

Temporary

Temporary Changes expected for less than half the time period

Conditions
Heavy Rain, Mist
Cloud Levels
  • Overcast at 1,200' AGL

Oct-17@
01:00 UTC

Oct-17 @ 01:00 UTC

Oct-17@
10:00 UTC

Oct-17 @ 10:00 UTC

FM170100 29008KT 5SM -RA BR OVC020

From

From Standard forecast or significant change

Wind
  • 290° at 8 KTS
Conditions
Light Rain, Mist
Cloud Levels
  • Overcast at 2,000' AGL

Oct-17@
10:00 UTC

Oct-17 @ 10:00 UTC

Oct-17@
14:00 UTC

Oct-17 @ 14:00 UTC

FM171000 30013G21KT 6SM -SHRA OVC009

From

From Standard forecast or significant change

Wind
  • 300° at 13 KTS
  • {Gusting to 21 KTS
Conditions
Light Rain
Cloud Levels
  • Overcast at 900' AGL

Oct-17@
14:00 UTC

Oct-17 @ 14:00 UTC

Oct-17@
18:00 UTC

Oct-17 @ 18:00 UTC

FM171400 30018G25KT 6SM -SHRA OVC011

From

From Standard forecast or significant change

Wind
  • 300° at 18 KTS
  • {Gusting to 25 KTS
Conditions
Light Rain
Cloud Levels
  • Overcast at 1,100' AGL